createdAt,value
2022-08-11T00:01:25.251Z,44.48
2022-08-11T00:04:00.507Z,44.45
2022-08-11T00:06:32.145Z,44.86
2022-08-11T00:09:02.351Z,44.91
2022-08-11T00:11:37.075Z,45.29
2022-08-11T00:14:08.349Z,45.68
2022-08-11T00:16:37.997Z,45.87
2022-08-11T00:19:11.519Z,45.47
2022-08-11T00:22:04.937Z,45.55
2022-08-11T00:24:38.680Z,45.64
2022-08-11T00:27:34.667Z,46.00
2022-08-11T00:30:05.613Z,46.03
2022-08-11T00:32:35.691Z,46.07
2022-08-11T00:35:51.649Z,45.89
2022-08-11T00:38:00.149Z,45.76
2022-08-11T00:40:37.371Z,46.11
2022-08-11T00:43:20.506Z,45.72
2022-08-11T00:46:11.063Z,45.72
2022-08-11T00:48:48.388Z,45.03
2022-08-11T00:51:27.810Z,44.92
2022-08-11T00:54:35.273Z,45.06
2022-08-11T00:57:36.771Z,44.63
2022-08-11T01:00:18.635Z,44.43
2022-08-11T01:02:57.048Z,44.37
2022-08-11T01:05:39.816Z,44.43
2022-08-11T01:08:41.334Z,43.70
2022-08-11T01:11:28.072Z,43.53
2022-08-11T01:14:33.709Z,43.49
2022-08-11T01:17:16.750Z,43.38
2022-08-11T01:20:45.415Z,42.86
2022-08-11T01:23:44.467Z,43.36
2022-08-11T01:26:55.769Z,43.09
2022-08-11T01:29:56.861Z,42.83
2022-08-11T01:33:02.064Z,43.04
2022-08-11T01:35:51.538Z,42.75
2022-08-11T01:38:33.628Z,42.56
2022-08-11T01:41:23.417Z,42.51
2022-08-11T01:44:27.953Z,42.51
2022-08-11T01:47:05.238Z,42.00
2022-08-11T01:50:08.228Z,42.07
2022-08-11T01:52:42.431Z,42.05
2022-08-11T01:55:17.186Z,42.18
2022-08-11T01:57:53.408Z,42.08
2022-08-11T02:00:28.971Z,42.46
2022-08-11T02:03:09.632Z,42.18
2022-08-11T02:06:01.089Z,42.26
2022-08-11T02:08:49.543Z,42.22
2022-08-11T02:11:37.472Z,41.98
2022-08-11T02:14:21.236Z,42.00
2022-08-11T02:17:05.706Z,42.25
2022-08-11T02:19:56.540Z,42.11
2022-08-11T02:22:46.581Z,42.07
2022-08-11T02:25:24.961Z,41.64
2022-08-11T04:11:05.344Z,43.17
2022-08-11T04:13:44.326Z,43.23
2022-08-11T04:16:16.942Z,43.31
2022-08-11T04:19:31.620Z,43.56
2022-08-11T04:22:36.985Z,44.14
2022-08-11T04:25:32.201Z,43.63
2022-08-11T04:28:28.494Z,43.30
2022-08-11T04:31:11.588Z,43.84
2022-08-11T04:34:11.046Z,43.84
2022-08-11T04:37:12.736Z,44.67
2022-08-11T04:40:17.654Z,44.79
2022-08-11T04:43:20.760Z,45.66
2022-08-11T04:46:09.105Z,46.11
2022-08-11T04:49:13.608Z,46.33
2022-08-11T04:52:35.930Z,46.06
2022-08-11T04:55:37.720Z,46.25
2022-08-11T04:58:30.118Z,45.79
2022-08-11T05:01:26.073Z,45.31
2022-08-11T05:04:35.119Z,45.23
2022-08-11T05:07:58.198Z,44.59
2022-08-11T05:10:43.103Z,44.23
2022-08-11T05:13:37.905Z,44.23
2022-08-11T05:16:28.720Z,43.42
2022-08-11T05:19:11.220Z,43.95
2022-08-11T05:21:55.440Z,43.57
2022-08-11T05:24:41.644Z,42.87
2022-08-11T05:27:25.565Z,42.62
2022-08-11T05:30:13.517Z,42.35
2022-08-11T05:33:02.186Z,42.10
2022-08-11T05:36:01.335Z,42.24
2022-08-11T05:38:40.306Z,41.82
2022-08-11T05:41:22.676Z,42.31
2022-08-11T05:44:20.474Z,41.54
2022-08-11T05:47:04.699Z,41.60
2022-08-11T05:49:50.354Z,40.93
2022-08-11T05:52:41.773Z,40.94
2022-08-11T05:55:26.038Z,40.60
2022-08-11T05:57:59.222Z,40.30
2022-08-11T06:00:29.103Z,40.56
2022-08-11T06:03:06.380Z,40.21
2022-08-11T06:05:43.472Z,40.16
2022-08-11T06:08:15.166Z,40.09
2022-08-11T06:10:47.541Z,39.94
2022-08-11T06:13:18.834Z,39.48
2022-08-11T06:15:49.745Z,39.56
2022-08-11T06:18:20.033Z,39.42
2022-08-11T06:20:54.873Z,38.82
2022-08-11T06:23:26.324Z,38.31
2022-08-11T06:25:56.973Z,38.63
2022-08-11T06:28:34.262Z,38.04
2022-08-11T06:31:05.597Z,37.90
2022-08-11T06:33:39.743Z,37.23
2022-08-11T06:36:18.269Z,35.72
2022-08-11T06:38:56.894Z,34.20
2022-08-11T06:41:33.233Z,32.20
2022-08-11T06:44:10.345Z,30.43
2022-08-11T06:46:42.668Z,29.14
2022-08-11T06:49:46.362Z,28.11
2022-08-11T06:52:35.153Z,26.43
2022-08-11T06:55:54.845Z,24.94
2022-08-11T06:58:12.149Z,24.36
2022-08-11T07:00:43.449Z,23.07
2022-08-11T07:03:15.165Z,22.40
2022-08-11T07:05:51.058Z,21.54
2022-08-11T07:08:55.885Z,20.66
2022-08-11T07:12:15.484Z,20.03
2022-08-11T07:15:04.495Z,19.71
2022-08-11T07:17:35.438Z,19.82
2022-08-11T07:20:31.312Z,19.21
2022-08-11T07:23:14.872Z,19.15
2022-08-11T07:26:04.328Z,18.17
2022-08-11T07:28:47.164Z,17.90
2022-08-11T07:31:17.746Z,18.24
2022-08-11T07:34:07.785Z,16.96
2022-08-11T07:36:42.879Z,16.41
2022-08-11T07:39:18.569Z,16.06
2022-08-11T07:41:51.132Z,15.86
2022-08-11T07:44:20.492Z,15.91
2022-08-11T07:47:04.896Z,16.23
2022-08-11T07:49:51.187Z,15.41
2022-08-11T07:52:29.787Z,15.29
2022-08-11T07:55:03.340Z,15.36
2022-08-11T07:58:14.304Z,14.42
2022-08-11T08:00:52.174Z,14.78
2022-08-11T08:03:35.022Z,14.50
2022-08-11T08:06:36.358Z,14.38
2022-08-11T08:09:19.694Z,14.30
2022-08-11T08:12:02.134Z,14.16
2022-08-11T08:14:46.585Z,14.09
2022-08-11T08:17:29.117Z,13.49
2022-08-11T08:19:59.022Z,13.37
2022-08-11T08:22:38.964Z,13.09
2022-08-11T08:25:10.771Z,12.65
2022-08-11T08:27:43.617Z,12.37
2022-08-11T08:30:29.461Z,12.41
2022-08-11T08:33:01.047Z,12.79
2022-08-11T08:35:33.088Z,12.30
2022-08-11T08:38:03.272Z,11.97
2022-08-11T08:40:33.281Z,11.81
2022-08-11T08:43:08.524Z,11.49
2022-08-11T08:45:42.927Z,11.59
2022-08-11T08:48:16.172Z,11.28
2022-08-11T08:51:17.360Z,11.30
2022-08-11T08:53:56.384Z,11.37
2022-08-11T08:56:29.609Z,11.24
2022-08-11T08:59:00.312Z,10.88
2022-08-11T09:01:34.874Z,10.63
2022-08-11T09:04:10.751Z,10.81
2022-08-11T09:06:43.819Z,10.87
2022-08-11T09:09:18.621Z,10.83
2022-08-11T09:11:54.331Z,10.73
2022-08-11T09:14:46.568Z,10.92
2022-08-11T09:17:18.617Z,11.14
2022-08-11T09:19:49.550Z,11.22
2022-08-11T09:22:41.257Z,10.93
2022-08-11T09:25:24.277Z,10.57
2022-08-11T09:27:56.559Z,10.30
2022-08-11T09:30:27.189Z,10.52
2022-08-11T09:33:02.480Z,10.32
2022-08-11T09:35:33.607Z,9.83
2022-08-11T09:38:16.513Z,9.74
2022-08-11T09:40:56.256Z,10.19
2022-08-11T09:43:39.722Z,10.24
2022-08-11T09:46:09.853Z,9.58
2022-08-11T09:48:45.136Z,9.61
2022-08-11T09:51:15.873Z,9.97
2022-08-11T09:54:02.693Z,10.31
2022-08-11T09:56:46.858Z,9.99
2022-08-11T09:59:16.774Z,10.07
2022-08-11T10:01:49.592Z,10.20
2022-08-11T10:04:28.679Z,10.34
2022-08-11T10:07:01.885Z,10.57
2022-08-11T10:09:40.053Z,10.82
2022-08-11T10:12:12.986Z,11.20
2022-08-11T10:14:59.269Z,11.29
2022-08-11T10:17:29.487Z,11.43
2022-08-11T10:20:04.821Z,12.13
2022-08-11T10:22:49.290Z,12.71
2022-08-11T10:25:31.744Z,13.47
2022-08-11T10:28:32.884Z,14.17
2022-08-11T10:31:03.861Z,15.07
2022-08-11T10:33:59.219Z,15.60
2022-08-11T10:36:32.328Z,16.57
2022-08-11T10:39:03.450Z,17.42
2022-08-11T10:42:08.475Z,17.98
2022-08-11T10:44:40.259Z,18.51
2022-08-11T10:47:23.486Z,18.77
2022-08-11T10:50:13.140Z,19.01
2022-08-11T10:52:58.674Z,19.09
2022-08-11T10:55:41.362Z,19.31
2022-08-11T10:58:24.263Z,19.79
2022-08-11T11:00:57.034Z,20.19
2022-08-11T11:03:28.218Z,19.92
2022-08-11T11:06:27.525Z,20.25
2022-08-11T11:09:04.139Z,20.40
2022-08-11T11:11:50.989Z,20.66
2022-08-11T11:14:34.985Z,20.70
2022-08-11T11:17:18.528Z,20.83
2022-08-11T11:19:48.868Z,20.95
2022-08-11T11:22:31.723Z,21.51
2022-08-11T11:25:16.796Z,21.50
2022-08-11T11:27:59.739Z,21.20
2022-08-11T11:30:36.901Z,21.30
2022-08-11T11:33:11.984Z,21.22
2022-08-11T11:35:52.885Z,21.32
2022-08-11T11:38:22.957Z,21.41
2022-08-11T11:41:08.109Z,21.90
2022-08-11T11:43:39.361Z,21.63
2022-08-11T11:46:10.731Z,21.36
2022-08-11T11:48:40.356Z,21.33
2022-08-11T11:51:13.987Z,21.11
2022-08-11T11:53:45.735Z,21.15
2022-08-11T11:56:18.629Z,20.92
2022-08-11T11:59:01.028Z,21.15
2022-08-11T12:01:31.044Z,21.31
2022-08-11T12:04:00.818Z,21.55
2022-08-11T12:06:30.475Z,21.53
2022-08-11T12:09:01.195Z,21.61
2022-08-11T12:11:46.721Z,21.54
2022-08-11T12:14:19.455Z,21.27
2022-08-11T12:16:51.176Z,21.37
2022-08-11T12:19:22.441Z,21.60
2022-08-11T12:22:10.157Z,21.69
2022-08-11T12:24:53.434Z,21.64
2022-08-11T12:27:26.198Z,21.32
2022-08-11T12:29:59.305Z,21.32
2022-08-11T12:32:30.859Z,21.38
2022-08-11T12:35:01.533Z,21.57
2022-08-11T12:37:34.035Z,21.45
2022-08-11T12:40:49.631Z,21.66
2022-08-11T12:43:37.145Z,21.87
2022-08-11T12:46:11.739Z,21.65
2022-08-11T12:49:02.018Z,21.84
2022-08-11T12:52:11.286Z,21.30
2022-08-11T12:54:44.381Z,21.92
2022-08-11T12:57:37.286Z,21.84
2022-08-11T13:00:24.633Z,21.67
2022-08-11T13:03:06.924Z,21.62
2022-08-11T13:05:44.466Z,21.85
2022-08-11T13:08:15.460Z,21.68
2022-08-11T13:10:58.422Z,21.50
2022-08-11T13:13:55.312Z,21.57
2022-08-11T13:16:20.918Z,21.82
2022-08-11T13:18:50.930Z,21.36
2022-08-11T13:21:24.200Z,21.52
2022-08-11T13:24:01.353Z,21.65
2022-08-11T13:26:47.899Z,21.47
2022-08-11T13:29:24.859Z,21.29
2022-08-11T13:31:59.827Z,21.28
2022-08-11T13:34:31.149Z,21.85
2022-08-11T13:37:04.271Z,21.61
2022-08-11T13:39:35.226Z,21.84
2022-08-11T13:42:06.590Z,21.74
2022-08-11T13:44:38.679Z,21.39
2022-08-11T13:47:11.923Z,21.61
2022-08-11T13:49:42.547Z,21.66
2022-08-11T13:52:13.909Z,21.71
2022-08-11T13:54:45.374Z,21.48
2022-08-11T13:58:08.441Z,21.55
2022-08-11T14:00:27.677Z,21.07
2022-08-11T14:03:01.107Z,21.12
2022-08-11T14:05:33.998Z,21.10
2022-08-11T14:08:06.147Z,21.57
2022-08-11T14:10:37.207Z,21.41
2022-08-11T14:13:23.679Z,21.30
2022-08-11T14:15:54.754Z,21.07
2022-08-11T14:18:29.721Z,21.57
2022-08-11T14:21:16.570Z,21.66
2022-08-11T14:23:49.451Z,21.23
2022-08-11T14:26:29.589Z,21.29
2022-08-11T14:29:02.327Z,20.98
2022-08-11T14:31:34.834Z,21.13
2022-08-11T14:34:10.418Z,21.37
2022-08-11T14:36:41.864Z,21.42
2022-08-11T14:39:17.143Z,21.40
2022-08-11T14:42:11.845Z,21.56
2022-08-11T14:44:57.358Z,21.26
2022-08-11T14:47:27.309Z,21.66
2022-08-11T14:50:10.961Z,21.22
2022-08-11T14:52:46.217Z,21.51
2022-08-11T14:55:28.773Z,20.97
2022-08-11T14:57:58.960Z,21.01
2022-08-11T15:00:29.034Z,20.66
2022-08-11T15:03:11.199Z,20.57
2022-08-11T15:05:56.616Z,20.66
2022-08-11T15:08:45.266Z,20.74
2022-08-11T15:11:28.248Z,20.70
2022-08-11T15:13:59.644Z,20.93
2022-08-11T15:16:42.657Z,21.15
2022-08-11T15:19:12.806Z,21.47
2022-08-11T15:21:57.614Z,21.58
2022-08-11T15:24:27.986Z,21.53
2022-08-11T15:27:14.212Z,21.25
2022-08-11T15:29:56.972Z,21.91
2022-08-11T15:32:39.417Z,21.77
2022-08-11T15:35:22.399Z,22.01
2022-08-11T15:37:58.914Z,22.09
2022-08-11T15:40:45.296Z,22.25
2022-08-11T15:43:31.716Z,21.84
2022-08-11T15:46:03.503Z,22.33
2022-08-11T15:48:39.947Z,22.27
2022-08-11T15:51:13.220Z,21.93
2022-08-11T15:53:56.838Z,21.91
2022-08-11T15:56:28.013Z,22.27
2022-08-11T15:59:40.742Z,22.02
2022-08-11T16:02:16.223Z,22.27
2022-08-11T16:04:47.680Z,22.33
2022-08-11T16:07:18.900Z,22.27
2022-08-11T16:10:00.037Z,22.66
2022-08-11T16:12:32.225Z,22.49
2022-08-11T16:15:19.937Z,22.77
2022-08-11T16:17:53.154Z,22.50
2022-08-11T16:20:24.731Z,22.81
2022-08-11T16:23:01.962Z,22.78
2022-08-11T16:26:30.390Z,22.39
2022-08-11T16:28:28.195Z,22.55
2022-08-11T16:30:58.012Z,22.38
2022-08-11T16:33:49.963Z,22.63
2022-08-11T16:36:32.200Z,23.13
2022-08-11T16:39:02.854Z,22.89
2022-08-11T16:41:49.460Z,23.02
2022-08-11T16:44:37.773Z,23.24
2022-08-11T16:47:08.871Z,22.81
2022-08-11T16:49:40.336Z,23.28
2022-08-11T16:52:12.833Z,23.14
2022-08-11T16:54:44.531Z,23.18
2022-08-11T16:57:32.785Z,23.07
2022-08-11T17:00:06.262Z,23.04
2022-08-11T17:02:50.829Z,23.44
2022-08-11T17:05:38.305Z,23.43
2022-08-11T17:08:36.350Z,23.52
2022-08-11T17:11:19.072Z,23.07
2022-08-11T17:13:55.138Z,23.57
2022-08-11T17:16:27.780Z,23.69
2022-08-11T17:19:01.245Z,23.81
2022-08-11T17:21:33.853Z,24.06
2022-08-11T17:24:08.433Z,23.80
2022-08-11T17:26:58.843Z,24.11
2022-08-11T17:29:33.529Z,24.38
2022-08-11T17:32:55.882Z,24.16
2022-08-11T17:35:31.263Z,24.32
2022-08-11T17:38:04.672Z,24.26
2022-08-11T17:40:37.209Z,24.62
2022-08-11T17:43:20.330Z,24.29
2022-08-11T17:46:04.997Z,24.78
2022-08-11T17:48:38.040Z,24.37
2022-08-11T17:51:34.959Z,24.90
2022-08-11T17:54:26.086Z,24.67
2022-08-11T17:57:20.405Z,25.02
2022-08-11T17:59:57.024Z,24.71
2022-08-11T18:02:47.486Z,25.05
2022-08-11T18:05:18.277Z,25.24
2022-08-11T18:08:01.596Z,25.25
2022-08-11T18:10:45.516Z,25.49
2022-08-11T18:13:27.877Z,25.62
2022-08-11T18:16:10.070Z,25.52
2022-08-11T18:18:54.892Z,25.70
2022-08-11T18:21:37.244Z,26.05
2022-08-11T18:24:24.274Z,25.83
2022-08-11T18:27:06.603Z,26.37
2022-08-11T18:29:50.358Z,26.55
2022-08-11T18:32:49.018Z,26.38
2022-08-11T18:35:35.087Z,26.73
2022-08-11T18:38:18.857Z,26.92
2022-08-11T18:41:02.242Z,27.08
2022-08-11T18:43:45.141Z,26.87
2022-08-11T18:46:28.709Z,27.15
2022-08-11T18:49:15.892Z,27.27
2022-08-11T18:52:04.040Z,27.49
2022-08-11T18:54:51.218Z,27.73
2022-08-11T18:57:47.061Z,27.82
2022-08-11T19:00:37.184Z,27.72
2022-08-11T19:03:20.922Z,28.05
2022-08-11T19:06:35.358Z,28.08
2022-08-11T19:09:09.423Z,28.14
2022-08-11T19:11:52.541Z,28.47
2022-08-11T19:14:34.798Z,28.51
2022-08-11T19:17:43.563Z,28.61
2022-08-11T19:20:23.135Z,28.75
2022-08-11T19:23:06.548Z,29.00
2022-08-11T19:25:51.611Z,28.52
2022-08-11T19:28:34.634Z,28.78
2022-08-11T19:31:17.126Z,29.04
2022-08-11T19:34:09.742Z,29.10
2022-08-11T19:36:53.407Z,29.10
2022-08-11T19:39:36.339Z,28.96
2022-08-11T19:42:22.826Z,28.94
2022-08-11T19:45:05.305Z,29.17
2022-08-11T19:47:47.566Z,29.52
2022-08-11T19:50:29.956Z,29.35
2022-08-11T19:53:17.289Z,29.46
2022-08-11T19:56:00.730Z,29.49
2022-08-11T19:58:45.599Z,29.49
2022-08-11T20:01:27.708Z,29.25
2022-08-11T20:04:09.929Z,29.33
2022-08-11T20:06:52.175Z,29.43
2022-08-11T20:10:04.668Z,29.41
2022-08-11T20:12:37.768Z,29.62
2022-08-11T20:15:24.559Z,29.90
2022-08-11T20:18:07.733Z,30.09
2022-08-11T20:20:50.203Z,29.80
2022-08-11T20:23:32.641Z,30.00
2022-08-11T20:26:31.878Z,30.66
2022-08-11T20:29:15.533Z,30.25
2022-08-11T20:32:01.070Z,30.66
2022-08-11T20:34:50.154Z,30.51
2022-08-11T20:37:35.397Z,31.02
2022-08-11T20:40:23.558Z,31.06
2022-08-11T20:43:06.352Z,31.52
2022-08-11T20:46:08.527Z,31.40
2022-08-11T20:48:55.646Z,31.58
2022-08-11T20:51:38.711Z,31.80
2022-08-11T20:54:41.981Z,31.58
2022-08-11T20:57:50.466Z,31.78
2022-08-11T21:00:39.134Z,31.64
2022-08-11T21:03:35.767Z,31.74
2022-08-11T21:06:31.448Z,31.81
2022-08-11T21:09:19.667Z,31.84
2022-08-11T21:12:03.305Z,31.99
2022-08-11T21:14:46.639Z,32.28
2022-08-11T21:17:32.875Z,32.47
2022-08-11T21:20:20.432Z,32.52
2022-08-11T21:23:07.040Z,32.92
2022-08-11T21:25:51.353Z,32.85
2022-08-11T21:28:34.291Z,33.08
2022-08-11T21:31:18.773Z,33.21
2022-08-11T21:34:01.316Z,32.80
2022-08-11T21:36:43.760Z,33.34
2022-08-11T21:39:33.375Z,33.12
2022-08-11T21:42:16.989Z,33.59
2022-08-11T21:45:00.149Z,33.51
2022-08-11T21:47:44.286Z,33.60
2022-08-11T21:50:26.529Z,33.72
2022-08-11T21:53:10.071Z,33.67
2022-08-11T21:55:54.876Z,33.82
2022-08-11T21:58:37.201Z,34.30
2022-08-11T22:01:19.510Z,34.47
2022-08-11T22:04:01.615Z,34.33
2022-08-11T22:06:44.918Z,34.38
2022-08-11T22:09:27.052Z,34.96
2022-08-11T22:12:33.816Z,34.76
2022-08-11T22:15:14.406Z,35.20
2022-08-11T22:17:58.190Z,35.47
2022-08-11T22:20:42.293Z,35.10
2022-08-11T22:23:24.134Z,35.42
2022-08-11T22:26:13.632Z,35.28
2022-08-11T22:28:58.631Z,35.30
2022-08-11T22:31:41.092Z,35.89
2022-08-11T22:34:23.458Z,35.90
2022-08-11T22:37:05.866Z,36.21
2022-08-11T22:40:01.561Z,36.18
2022-08-11T22:42:44.690Z,36.44
2022-08-11T22:45:29.617Z,36.72
2022-08-11T22:48:11.949Z,36.14
2022-08-11T22:50:54.777Z,36.34
2022-08-11T22:53:57.536Z,36.37
2022-08-11T22:56:39.537Z,37.01
2022-08-11T22:59:21.844Z,36.99
2022-08-11T23:02:06.929Z,36.97
2022-08-11T23:04:53.158Z,37.01
2022-08-11T23:07:49.414Z,37.36
2022-08-11T23:10:34.696Z,37.84
2022-08-11T23:13:22.242Z,37.78
2022-08-11T23:16:04.932Z,38.41
2022-08-11T23:18:49.849Z,38.32
2022-08-11T23:21:32.458Z,38.74
2022-08-11T23:24:15.185Z,38.82
2022-08-11T23:26:57.372Z,38.80
2022-08-11T23:29:40.094Z,39.43
2022-08-11T23:32:22.492Z,39.32
2022-08-11T23:35:38.047Z,39.60
2022-08-11T23:38:12.285Z,40.08
2022-08-11T23:40:54.457Z,39.96
2022-08-11T23:43:37.197Z,40.00
2022-08-11T23:46:19.284Z,39.75
2022-08-11T23:49:08.973Z,40.34
2022-08-11T23:51:54.802Z,39.82
2022-08-11T23:54:37.682Z,39.85
2022-08-11T23:57:20.316Z,40.26
